Time;durP1;ratioP1;P1;durP2;ratioP2;P2;SDS_P1;SDS_P2;PMS_P1;PMS_P2;Temp;Humidity;BMP_temperature;BMP_pressure;BME280_temperature;BME280_humidity;BME280_pressure;Samples;Min_cycle;Max_cycle;Signal;HPM_P1;HPM_P2
2024/04/02 00:01:05;;;;;;;12.85;6.35;;;7.50;99.90;;;;;;5043707;28;20037;-61
2024/04/02 00:03:31;;;;;;;8.63;6.07;;;7.40;99.90;;;;;;5039230;28;20206;-61
2024/04/02 00:05:57;;;;;;;10.10;6.60;;;7.40;99.90;;;;;;5035367;28;20037;-60
2024/04/02 00:08:23;;;;;;;11.77;6.70;;;7.40;99.90;;;;;;5034159;28;20315;-60
2024/04/02 00:10:48;;;;;;;9.90;6.20;;;7.40;99.90;;;;;;5035858;28;20106;-61
2024/04/02 00:13:14;;;;;;;12.77;6.80;;;7.40;99.90;;;;;;5040772;28;20039;-61
2024/04/02 00:15:47;;;;;;;13.10;7.05;;;7.50;99.90;;;;;;5033233;28;20040;-61
2024/04/02 00:18:15;;;;;;;11.57;6.45;;;7.60;99.90;;;;;;5035881;28;20033;-61
2024/04/02 00:20:41;;;;;;;12.52;6.40;;;7.60;99.90;;;;;;5077901;28;20056;-61
2024/04/02 00:23:08;;;;;;;13.35;7.00;;;7.60;99.90;;;;;;5043786;28;20676;-61
2024/04/02 00:25:35;;;;;;;9.70;6.32;;;7.60;99.90;;;;;;5032933;28;20045;-61
2024/04/02 00:28:00;;;;;;;13.93;7.57;;;7.60;99.90;;;;;;5038353;28;20045;-61
2024/04/02 00:30:30;;;;;;;16.20;7.10;;;7.50;99.90;;;;;;5029665;28;20037;-61
2024/04/02 00:32:56;;;;;;;11.30;7.30;;;7.40;99.90;;;;;;5044663;28;20044;-62
2024/04/02 00:35:23;;;;;;;18.30;6.75;;;7.50;99.90;;;;;;5035598;28;20024;-62
2024/04/02 00:37:50;;;;;;;14.27;7.57;;;7.50;99.90;;;;;;5036078;28;20249;-62
2024/04/02 00:40:17;;;;;;;13.70;6.75;;;7.50;99.90;;;;;;5040933;28;20045;-61
2024/04/02 00:42:44;;;;;;;10.77;6.40;;;7.40;99.90;;;;;;5030269;28;20066;-61
2024/04/02 00:45:10;;;;;;;9.73;6.15;;;7.40;99.90;;;;;;5046200;28;20041;-62
2024/04/02 00:47:37;;;;;;;12.48;7.15;;;7.50;99.90;;;;;;5042579;28;20044;-61
2024/04/02 00:50:04;;;;;;;15.98;6.82;;;7.50;99.90;;;;;;5036987;28;20098;-62
2024/04/02 00:52:30;;;;;;;13.52;6.97;;;7.40;99.90;;;;;;5036011;28;20115;-61
2024/04/02 00:54:57;;;;;;;12.93;6.68;;;7.50;99.90;;;;;;5038924;28;20091;-61
2024/04/02 00:57:23;;;;;;;14.35;7.25;;;7.40;99.90;;;;;;5041353;28;20142;-62
2024/04/02 00:59:48;;;;;;;16.85;6.78;;;7.50;99.90;;;;;;5050300;28;20310;-61
2024/04/02 01:02:14;;;;;;;11.27;6.50;;;7.40;99.90;;;;;;5037053;28;20060;-61
2024/04/02 01:04:41;;;;;;;11.05;6.50;;;7.50;99.90;;;;;;5038200;28;20073;-61
2024/04/02 01:07:07;;;;;;;8.63;6.47;;;7.50;99.90;;;;;;5038945;28;20048;-61
2024/04/02 01:09:34;;;;;;;15.70;7.43;;;7.50;99.90;;;;;;5038085;28;20110;-61
2024/04/02 01:12:01;;;;;;;11.52;6.40;;;7.50;99.90;;;;;;5039151;28;20128;-61
2024/04/02 01:14:26;;;;;;;16.23;7.47;;;7.50;99.90;;;;;;5027691;28;20463;-61
2024/04/02 01:16:52;;;;;;;17.60;6.63;;;7.40;99.90;;;;;;5041467;28;20392;-62
2024/04/02 01:19:18;;;;;;;12.68;6.10;;;7.50;99.90;;;;;;5048369;28;20044;-61
2024/04/02 01:21:44;;;;;;;12.85;6.93;;;7.40;99.90;;;;;;5042882;28;20051;-61
2024/04/02 01:24:09;;;;;;;13.95;6.45;;;7.50;99.90;;;;;;5040073;28;20037;-61
2024/04/02 01:26:35;;;;;;;17.17;6.90;;;7.40;99.90;;;;;;5039430;28;20047;-61
2024/04/02 01:29:03;;;;;;;14.52;7.30;;;7.40;99.90;;;;;;5036674;28;20076;-62
2024/04/02 01:31:32;;;;;;;10.77;7.53;;;7.50;99.90;;;;;;5036301;28;20423;-61
2024/04/02 01:33:59;;;;;;;14.18;6.63;;;7.50;99.90;;;;;;5034628;28;20408;-61
2024/04/02 01:36:25;;;;;;;13.07;7.50;;;7.40;99.90;;;;;;5045679;28;20112;-61
2024/04/02 01:38:50;;;;;;;14.35;6.75;;;7.40;99.90;;;;;;5044417;28;20131;-61
2024/04/02 01:41:16;;;;;;;8.70;6.72;;;7.40;99.90;;;;;;5039489;28;20559;-61
2024/04/02 01:43:42;;;;;;;15.23;6.75;;;7.50;99.90;;;;;;5043435;28;20037;-61
2024/04/02 01:46:08;;;;;;;16.08;7.57;;;7.40;99.90;;;;;;5046812;28;20081;-61
2024/04/02 01:48:33;;;;;;;9.80;6.60;;;7.50;99.90;;;;;;5039767;28;20123;-62
2024/04/02 01:50:59;;;;;;;14.25;7.53;;;7.40;99.90;;;;;;5042030;28;20051;-61
2024/04/02 01:53:25;;;;;;;11.55;6.80;;;7.50;99.90;;;;;;5031197;28;20036;-61
2024/04/02 01:55:51;;;;;;;12.63;6.55;;;7.50;99.90;;;;;;5049955;28;20060;-61
2024/04/02 01:58:17;;;;;;;11.55;7.00;;;7.50;99.90;;;;;;5048765;28;20072;-61
2024/04/02 02:00:43;;;;;;;11.50;6.82;;;7.50;99.90;;;;;;5040300;28;20124;-62
2024/04/02 02:03:08;;;;;;;13.18;7.40;;;7.40;99.90;;;;;;5046397;28;20063;-62
2024/04/02 02:05:34;;;;;;;10.50;7.50;;;7.50;99.90;;;;;;5049738;28;20576;-62
2024/04/02 02:08:00;;;;;;;13.10;6.68;;;7.40;99.90;;;;;;5042708;28;20037;-61
2024/04/02 02:10:25;;;;;;;10.93;7.05;;;7.40;99.90;;;;;;5036060;28;20386;-61
2024/04/02 02:12:51;;;;;;;11.32;8.02;;;7.30;99.90;;;;;;5044922;28;20138;-62
2024/04/02 02:15:18;;;;;;;9.50;7.47;;;7.30;99.90;;;;;;5039954;28;20759;-61
2024/04/02 02:17:48;;;;;;;19.08;8.70;;;7.30;99.90;;;;;;5043983;28;20048;-61
2024/04/02 02:20:15;;;;;;;13.63;7.63;;;7.30;99.90;;;;;;5046042;28;20048;-61
2024/04/02 02:22:41;;;;;;;11.02;8.02;;;7.30;99.90;;;;;;5039464;28;20060;-61
2024/04/02 02:25:07;;;;;;;16.58;8.90;;;7.20;99.90;;;;;;5038973;28;20037;-61
2024/04/02 02:27:33;;;;;;;15.57;8.85;;;7.20;99.90;;;;;;5042658;28;20037;-61
2024/04/02 02:29:59;;;;;;;13.13;8.38;;;7.20;99.90;;;;;;5032498;28;20086;-61
2024/04/02 02:32:25;;;;;;;15.82;8.65;;;7.10;99.90;;;;;;5042159;28;20072;-61
2024/04/02 02:34:50;;;;;;;14.13;8.38;;;7.20;99.90;;;;;;5039417;28;20502;-60
2024/04/02 02:37:16;;;;;;;11.50;9.18;;;7.20;99.90;;;;;;5036866;28;20042;-60
2024/04/02 02:39:42;;;;;;;14.77;9.25;;;7.20;99.90;;;;;;5043112;28;20037;-60
2024/04/02 02:42:08;;;;;;;13.98;9.60;;;7.20;99.90;;;;;;5042294;28;20385;-61
2024/04/02 02:44:33;;;;;;;16.88;9.80;;;7.20;99.90;;;;;;5039783;28;20047;-61
2024/04/02 02:46:59;;;;;;;18.50;10.98;;;7.30;99.90;;;;;;5034985;28;20944;-61
2024/04/02 02:49:26;;;;;;;15.68;10.02;;;7.20;99.90;;;;;;5039127;28;20494;-61
2024/04/02 02:51:51;;;;;;;18.35;10.85;;;7.30;99.90;;;;;;5048540;28;20051;-60
2024/04/02 02:54:17;;;;;;;16.50;10.60;;;7.30;99.90;;;;;;5043106;28;20044;-61
2024/04/02 02:56:43;;;;;;;18.05;10.88;;;7.40;99.90;;;;;;5042415;28;20037;-60
2024/04/02 02:59:08;;;;;;;19.10;11.95;;;7.40;99.90;;;;;;5043801;28;20369;-61
2024/04/02 03:01:34;;;;;;;19.38;11.15;;;7.40;99.90;;;;;;5044037;28;20044;-61
2024/04/02 03:04:00;;;;;;;21.67;11.73;;;7.40;99.90;;;;;;5046913;28;20049;-61
2024/04/02 03:06:26;;;;;;;17.40;11.68;;;7.50;99.90;;;;;;5039608;28;20527;-61
2024/04/02 03:08:51;;;;;;;17.23;12.07;;;7.60;99.90;;;;;;5050383;28;20037;-61
2024/04/02 03:11:17;;;;;;;21.63;13.00;;;7.80;99.90;;;;;;5055871;28;20412;-60
2024/04/02 03:13:43;;;;;;;23.73;13.98;;;7.50;99.90;;;;;;5041467;28;20036;-61
2024/04/02 03:16:09;;;;;;;19.48;12.65;;;7.50;99.90;;;;;;5043423;28;20244;-61
2024/04/02 03:18:35;;;;;;;19.25;13.70;;;7.70;99.90;;;;;;5043529;28;20085;-61
2024/04/02 03:21:01;;;;;;;22.25;14.20;;;7.70;99.90;;;;;;5043509;28;20396;-61
2024/04/02 03:23:27;;;;;;;21.50;14.00;;;7.70;99.90;;;;;;5043647;28;20052;-61
2024/04/02 03:26:00;;;;;;;17.73;13.93;;;7.70;99.90;;;;;;5032834;28;20455;-61
2024/04/02 03:28:30;;;;;;;21.13;14.48;;;7.70;99.90;;;;;;5042566;28;20055;-62
2024/04/02 03:31:03;;;;;;;21.52;14.02;;;7.80;99.90;;;;;;5040960;28;20518;-62
2024/04/02 03:33:30;;;;;;;20.58;14.10;;;7.70;99.90;;;;;;5043318;28;20124;-61
2024/04/02 03:36:03;;;;;;;19.17;14.18;;;7.70;99.90;;;;;;5042385;28;20090;-61
2024/04/02 03:38:29;;;;;;;23.35;15.48;;;7.80;99.90;;;;;;5046105;28;20068;-61
2024/04/02 03:40:55;;;;;;;24.33;15.05;;;7.90;99.90;;;;;;5064343;28;20044;-61
2024/04/02 03:43:21;;;;;;;22.98;14.80;;;7.90;99.90;;;;;;5039537;28;20045;-61
2024/04/02 03:45:46;;;;;;;18.88;15.02;;;7.80;99.90;;;;;;5031732;28;20056;-61
2024/04/02 03:48:12;;;;;;;24.48;14.80;;;7.80;99.90;;;;;;5047640;28;20190;-61
2024/04/02 03:50:39;;;;;;;29.02;14.57;;;7.80;99.90;;;;;;5049019;28;20105;-62
2024/04/02 03:53:06;;;;;;;22.27;14.68;;;7.90;99.90;;;;;;5043430;28;20033;-62
2024/04/02 03:55:35;;;;;;;21.02;14.00;;;7.90;99.90;;;;;;5045861;28;20106;-62
2024/04/02 03:58:02;;;;;;;23.15;13.77;;;7.90;99.90;;;;;;5034321;28;20327;-62
2024/04/02 04:00:28;;;;;;;19.63;13.50;;;7.90;99.90;;;;;;5043535;28;20108;-62
2024/04/02 04:02:55;;;;;;;18.85;12.02;;;7.80;99.90;;;;;;5044423;28;20578;-62
2024/04/02 04:05:21;;;;;;;17.58;12.45;;;7.90;99.90;;;;;;5031322;28;20125;-62
2024/04/02 04:07:47;;;;;;;15.50;12.13;;;7.70;99.90;;;;;;5044310;28;20040;-61
2024/04/02 04:10:13;;;;;;;20.58;13.18;;;7.70;99.90;;;;;;5039378;28;20037;-62
2024/04/02 04:12:39;;;;;;;17.83;13.23;;;7.60;99.90;;;;;;5035861;28;20045;-62
2024/04/02 04:15:05;;;;;;;16.85;12.60;;;7.70;99.90;;;;;;5037471;28;20052;-62
2024/04/02 04:17:31;;;;;;;21.92;12.82;;;7.70;99.90;;;;;;5041304;28;20037;-62
2024/04/02 04:19:56;;;;;;;19.45;13.38;;;7.70;99.90;;;;;;5041272;28;20514;-62
2024/04/02 04:22:22;;;;;;;20.20;11.90;;;7.60;99.90;;;;;;5042630;28;20390;-62
2024/04/02 04:25:02;;;;;;;19.00;13.43;;;7.50;99.90;;;;;;5030706;28;20047;-61
2024/04/02 04:27:32;;;;;;;;;;;7.50;99.90;;;;;;5042182;28;20029;-62
2024/04/02 04:29:59;;;;;;;14.93;12.07;;;7.60;99.90;;;;;;5040482;28;20502;-62
2024/04/02 04:32:25;;;;;;;17.85;12.18;;;7.50;99.90;;;;;;5047996;28;20043;-62
2024/04/02 04:34:50;;;;;;;19.80;12.73;;;7.60;99.90;;;;;;5036870;28;20041;-62
2024/04/02 04:37:16;;;;;;;15.48;12.70;;;7.60;99.90;;;;;;5049944;28;20458;-62
2024/04/02 04:39:42;;;;;;;15.25;11.90;;;7.60;99.90;;;;;;5035372;28;20044;-63
2024/04/02 04:42:08;;;;;;;18.15;12.50;;;7.50;99.90;;;;;;5047824;28;20237;-62
2024/04/02 04:44:33;;;;;;;18.45;13.13;;;7.40;99.90;;;;;;5044547;28;20724;-62
2024/04/02 04:46:59;;;;;;;16.40;12.48;;;7.50;99.90;;;;;;5044550;28;20066;-62
2024/04/02 04:49:25;;;;;;;19.17;12.07;;;7.50;99.90;;;;;;5038593;28;20041;-62
2024/04/02 04:51:51;;;;;;;14.85;12.15;;;7.50;99.90;;;;;;5041099;28;20132;-62
2024/04/02 04:54:16;;;;;;;18.08;12.43;;;7.40;99.90;;;;;;5043832;28;20558;-63
2024/04/02 04:56:42;;;;;;;17.90;12.70;;;7.40;99.90;;;;;;5035169;28;20073;-62
2024/04/02 04:59:08;;;;;;;19.42;11.70;;;7.40;99.90;;;;;;5036414;28;20119;-63
2024/04/02 05:01:33;;;;;;;21.05;12.75;;;7.40;99.90;;;;;;5028028;28;20037;-62
2024/04/02 05:03:59;;;;;;;16.92;11.93;;;7.50;99.90;;;;;;5036562;28;20557;-62
2024/04/02 05:06:25;;;;;;;17.95;12.35;;;7.40;99.90;;;;;;5037114;28;20047;-62
2024/04/02 05:08:51;;;;;;;19.60;12.25;;;7.40;99.90;;;;;;5037101;28;20646;-62
2024/04/02 05:11:16;;;;;;;17.85;11.82;;;7.30;99.90;;;;;;5036546;28;20128;-63
2024/04/02 05:13:42;;;;;;;16.75;11.23;;;7.30;99.90;;;;;;5052047;28;20119;-62
2024/04/02 05:16:08;;;;;;;16.15;11.40;;;7.40;99.90;;;;;;5038339;28;20041;-62
2024/04/02 05:18:34;;;;;;;14.82;10.93;;;7.40;99.90;;;;;;5032448;28;20052;-62
2024/04/02 05:21:00;;;;;;;15.82;11.05;;;7.40;99.90;;;;;;5036067;28;20037;-62
2024/04/02 05:23:29;;;;;;;14.65;10.98;;;7.40;99.90;;;;;;5037229;28;20064;-62
2024/04/02 05:25:58;;;;;;;15.68;10.57;;;7.30;99.90;;;;;;5037599;28;20094;-62
2024/04/02 05:28:24;;;;;;;15.50;10.32;;;7.40;99.90;;;;;;5040727;28;20041;-62
2024/04/02 05:30:50;;;;;;;13.73;10.23;;;7.40;99.90;;;;;;5040912;28;20440;-62
2024/04/02 05:33:15;;;;;;;13.00;10.98;;;7.50;99.90;;;;;;5041449;28;20048;-62
2024/04/02 05:35:41;;;;;;;15.57;10.88;;;7.50;99.90;;;;;;5037408;28;20033;-62
2024/04/02 05:38:07;;;;;;;17.08;11.48;;;7.40;99.90;;;;;;5040604;28;20496;-63
2024/04/02 05:40:33;;;;;;;14.40;10.05;;;7.50;99.90;;;;;;5033670;28;20099;-62
2024/04/02 05:42:59;;;;;;;12.98;9.85;;;7.60;99.90;;;;;;5038442;28;20049;-63
2024/04/02 05:45:25;;;;;;;13.65;9.77;;;7.60;99.90;;;;;;5041096;28;20052;-62
2024/04/02 05:47:50;;;;;;;11.98;9.68;;;7.60;99.90;;;;;;5041676;28;20048;-62
2024/04/02 05:50:17;;;;;;;13.82;9.63;;;7.70;99.90;;;;;;5041162;28;20045;-63
2024/04/02 05:52:43;;;;;;;16.35;9.60;;;7.80;99.90;;;;;;5042919;28;20526;-62
2024/04/02 05:55:09;;;;;;;12.43;8.98;;;7.90;99.90;;;;;;5042509;28;20044;-62
2024/04/02 05:57:36;;;;;;;10.98;8.93;;;8.00;99.90;;;;;;5039807;28;20859;-62
2024/04/02 06:00:05;;;;;;;12.82;9.05;;;8.10;99.90;;;;;;5039319;28;20159;-62
2024/04/02 06:02:32;;;;;;;11.57;8.45;;;8.30;99.90;;;;;;5040390;28;20128;-62
2024/04/02 06:04:58;;;;;;;14.85;8.27;;;8.40;99.90;;;;;;5038311;28;20094;-62
2024/04/02 06:07:24;;;;;;;9.88;7.95;;;8.50;99.90;;;;;;5039461;28;20500;-62
2024/04/02 06:09:49;;;;;;;10.85;8.18;;;8.50;99.90;;;;;;5040443;28;20041;-62
2024/04/02 06:12:15;;;;;;;10.63;7.95;;;8.70;99.90;;;;;;5039909;28;20478;-62
2024/04/02 06:14:41;;;;;;;10.50;8.18;;;8.70;99.90;;;;;;5037622;28;20029;-63
2024/04/02 06:17:07;;;;;;;8.60;7.63;;;8.90;99.90;;;;;;5029351;28;20544;-62
2024/04/02 06:19:33;;;;;;;13.10;7.22;;;9.00;99.90;;;;;;5038670;28;20094;-63
2024/04/02 06:21:59;;;;;;;8.18;6.85;;;9.00;99.90;;;;;;5039536;28;20551;-62
2024/04/02 06:24:25;;;;;;;9.82;6.60;;;9.10;99.90;;;;;;5040880;28;20041;-62
2024/04/02 06:26:51;;;;;;;11.93;7.40;;;9.20;99.90;;;;;;5040182;28;20060;-62
2024/04/02 06:29:18;;;;;;;7.40;6.50;;;9.40;99.90;;;;;;5030999;28;20614;-62
2024/04/02 06:31:44;;;;;;;11.27;6.25;;;9.50;99.90;;;;;;5040265;28;20052;-63
2024/04/02 06:34:10;;;;;;;7.95;7.00;;;9.60;99.90;;;;;;5041895;28;20304;-62
2024/04/02 06:36:36;;;;;;;7.63;5.97;;;9.70;99.90;;;;;;5042046;28;20386;-62
2024/04/02 06:39:02;;;;;;;11.90;6.78;;;9.80;99.90;;;;;;5037893;28;20067;-62
2024/04/02 06:41:29;;;;;;;8.85;6.50;;;9.90;99.90;;;;;;5040774;28;20465;-63
2024/04/02 06:43:55;;;;;;;8.18;6.07;;;10.00;99.90;;;;;;5040314;28;20052;-63
2024/04/02 06:46:21;;;;;;;7.32;6.38;;;10.20;99.90;;;;;;5040665;28;20044;-62
2024/04/02 06:48:46;;;;;;;8.63;5.80;;;10.30;99.90;;;;;;5040926;28;20404;-62
2024/04/02 06:51:13;;;;;;;9.45;6.13;;;10.50;99.90;;;;;;5038825;28;20107;-63
2024/04/02 06:53:39;;;;;;;8.57;6.07;;;10.60;99.90;;;;;;5040064;28;20090;-62
2024/04/02 06:56:06;;;;;;;7.90;5.82;;;10.80;99.90;;;;;;5040562;28;20122;-63
2024/04/02 06:58:32;;;;;;;8.85;5.53;;;11.00;99.90;;;;;;5040102;28;20037;-62
2024/04/02 07:00:59;;;;;;;6.65;5.30;;;11.20;99.90;;;;;;5042445;28;20048;-62
2024/04/02 07:03:26;;;;;;;8.95;5.53;;;11.30;99.90;;;;;;5036936;28;20052;-63
2024/04/02 07:05:53;;;;;;;7.70;6.15;;;11.40;99.90;;;;;;5040283;28;20089;-62
2024/04/02 07:08:24;;;;;;;6.13;4.88;;;11.60;99.90;;;;;;5037061;28;20068;-62
2024/04/02 07:11:04;;;;;;;8.52;5.35;;;11.70;99.90;;;;;;5039132;28;20535;-60
2024/04/02 07:13:34;;;;;;;9.57;5.47;;;11.70;99.90;;;;;;5038797;28;20111;-60
2024/04/02 07:16:03;;;;;;;7.55;5.63;;;11.90;99.90;;;;;;5040455;28;20495;-60
2024/04/02 07:18:34;;;;;;;7.68;5.15;;;12.10;99.90;;;;;;5038675;28;20060;-61
2024/04/02 07:21:02;;;;;;;8.80;5.28;;;12.50;99.90;;;;;;5038060;28;20120;-60
2024/04/02 07:23:28;;;;;;;7.03;5.40;;;12.60;99.90;;;;;;5039351;28;20041;-60
2024/04/02 07:25:54;;;;;;;8.13;5.15;;;12.90;99.90;;;;;;5036478;28;20260;-61
2024/04/02 07:28:21;;;;;;;7.00;4.95;;;13.30;99.90;;;;;;5035310;28;20045;-60
2024/04/02 07:30:47;;;;;;;7.68;4.93;;;13.20;99.90;;;;;;5037172;28;20074;-60
2024/04/02 07:33:13;;;;;;;7.07;5.22;;;13.30;99.90;;;;;;5038693;28;20052;-60
2024/04/02 07:35:39;;;;;;;10.40;5.88;;;13.30;99.90;;;;;;5039271;28;20044;-61
2024/04/02 07:38:05;;;;;;;7.55;4.90;;;13.30;99.90;;;;;;5037831;28;20037;-60
2024/04/02 07:40:31;;;;;;;9.07;5.22;;;13.50;99.90;;;;;;5038158;28;20136;-61
2024/04/02 07:43:00;;;;;;;9.48;5.18;;;13.60;99.90;;;;;;5038815;28;20500;-60
2024/04/02 07:45:25;;;;;;;8.85;5.22;;;13.60;99.90;;;;;;5038453;28;20041;-60
2024/04/02 07:47:51;;;;;;;7.43;5.43;;;13.60;99.90;;;;;;5038588;28;20041;-60
2024/04/02 07:50:17;;;;;;;6.72;4.78;;;13.80;99.90;;;;;;5036027;28;20040;-61
2024/04/02 07:52:43;;;;;;;10.77;5.03;;;13.50;99.90;;;;;;5032281;28;20137;-61
2024/04/02 07:55:09;;;;;;;7.57;4.65;;;13.10;99.90;;;;;;5038522;28;20540;-60
2024/04/02 07:57:35;;;;;;;11.63;5.10;;;13.00;99.90;;;;;;5037355;28;20045;-61
2024/04/02 08:00:01;;;;;;;19.88;5.93;;;12.70;99.90;;;;;;5040921;28;20119;-61
2024/04/02 08:02:30;;;;;;;9.20;4.95;;;12.50;99.90;;;;;;5035395;28;20033;-62
2024/04/02 08:04:56;;;;;;;7.82;4.88;;;12.60;99.90;;;;;;5036670;28;20064;-62
2024/04/02 08:07:22;;;;;;;7.97;4.88;;;12.40;99.90;;;;;;5037845;28;20041;-62
2024/04/02 08:09:48;;;;;;;11.30;5.32;;;12.30;99.90;;;;;;5038880;28;20043;-62
2024/04/02 08:12:13;;;;;;;11.70;5.90;;;12.20;99.90;;;;;;5034797;28;20056;-64
2024/04/02 08:14:39;;;;;;;10.48;5.93;;;12.20;99.90;;;;;;5035440;28;20067;-61
2024/04/02 08:17:05;;;;;;;11.73;5.95;;;12.20;99.90;;;;;;5031330;28;20146;-62
2024/04/02 08:19:31;;;;;;;11.90;5.43;;;12.20;99.90;;;;;;5035954;28;20048;-61
2024/04/02 08:21:56;;;;;;;10.05;5.07;;;12.00;99.90;;;;;;5035949;28;20041;-60
2024/04/02 08:24:25;;;;;;;10.45;5.35;;;12.10;99.90;;;;;;5036802;28;20090;-60
2024/04/02 08:26:51;;;;;;;8.25;5.75;;;12.00;99.90;;;;;;5037304;28;20167;-61
2024/04/02 08:29:18;;;;;;;8.55;5.18;;;11.90;99.90;;;;;;5038295;28;20123;-61
2024/04/02 08:31:44;;;;;;;11.40;5.13;;;11.90;99.90;;;;;;5037799;28;20048;-61
2024/04/02 08:34:10;;;;;;;12.55;5.45;;;11.80;99.90;;;;;;5039192;28;20029;-61
2024/04/02 08:36:37;;;;;;;10.73;5.22;;;11.80;99.90;;;;;;5035227;28;20043;-62
2024/04/02 08:39:04;;;;;;;13.55;6.13;;;12.00;99.90;;;;;;5037097;28;20049;-61
2024/04/02 08:41:30;;;;;;;11.75;5.05;;;12.00;99.90;;;;;;5039171;28;20128;-61
2024/04/02 08:43:57;;;;;;;9.50;4.72;;;12.20;99.90;;;;;;5040406;28;20047;-62
2024/04/02 08:46:25;;;;;;;16.67;5.13;;;12.10;99.90;;;;;;5037361;28;20037;-61
2024/04/02 08:48:57;;;;;;;12.27;5.55;;;12.10;99.90;;;;;;5039124;28;20179;-61
2024/04/02 08:51:24;;;;;;;10.95;5.15;;;12.20;99.90;;;;;;5038837;28;20068;-62
2024/04/02 08:53:49;;;;;;;14.30;5.28;;;12.00;99.90;;;;;;5039328;28;20365;-61
2024/04/02 08:56:15;;;;;;;10.77;4.50;;;12.00;99.90;;;;;;5039853;28;20036;-61
2024/04/02 08:58:42;;;;;;;11.65;4.78;;;12.00;99.90;;;;;;5037800;28;20037;-61
2024/04/02 09:01:11;;;;;;;9.43;5.03;;;11.90;99.90;;;;;;5037730;28;20151;-61
2024/04/02 09:03:37;;;;;;;10.93;4.65;;;11.80;99.90;;;;;;5038763;28;20041;-61
2024/04/02 09:06:03;;;;;;;13.43;5.45;;;11.80;99.90;;;;;;5036189;28;20075;-61
2024/04/02 09:08:30;;;;;;;11.02;5.15;;;11.80;99.90;;;;;;5036974;28;20525;-61
2024/04/02 09:10:55;;;;;;;9.75;4.93;;;11.90;99.90;;;;;;5038293;28;20124;-61
2024/04/02 09:13:21;;;;;;;11.57;4.50;;;12.20;99.90;;;;;;5037632;28;20033;-61
2024/04/02 09:15:47;;;;;;;8.52;4.65;;;12.50;99.90;;;;;;5036928;28;20504;-61
2024/04/02 09:18:16;;;;;;;13.25;4.65;;;12.80;99.90;;;;;;5035626;28;20391;-61
2024/04/02 09:20:42;;;;;;;13.07;4.68;;;12.80;99.90;;;;;;5033294;28;20047;-61
2024/04/02 09:23:09;;;;;;;19.63;5.00;;;12.70;99.90;;;;;;5036216;28;20037;-60
2024/04/02 09:25:34;;;;;;;9.93;3.97;;;12.70;99.90;;;;;;5040131;28;20120;-60
2024/04/02 09:28:00;;;;;;;10.75;4.47;;;12.80;99.90;;;;;;5036604;28;20036;-61
2024/04/02 09:30:26;;;;;;;10.25;4.25;;;13.00;99.90;;;;;;5039237;28;20130;-61
2024/04/02 09:32:53;;;;;;;10.70;4.13;;;13.10;99.90;;;;;;5037573;28;20056;-61
2024/04/02 09:36:05;;;;;;;11.27;4.78;;;13.10;99.90;;;;;;5036507;28;20380;-61
2024/04/02 09:38:34;;;;;;;12.15;4.30;;;13.00;99.90;;;;;;5010621;28;20120;-61
2024/04/02 09:41:01;;;;;;;15.40;4.72;;;13.10;99.90;;;;;;5032942;28;20053;-63
2024/04/02 09:43:30;;;;;;;10.45;4.82;;;13.10;99.90;;;;;;5035351;28;20056;-61
2024/04/02 09:46:00;;;;;;;12.02;4.38;;;13.10;99.90;;;;;;5032254;28;20032;-61
2024/04/02 09:48:30;;;;;;;10.35;4.05;;;13.20;99.90;;;;;;5035978;28;20237;-60
2024/04/02 09:50:57;;;;;;;9.85;3.75;;;13.20;99.90;;;;;;5036168;28;20037;-61
2024/04/02 09:53:24;;;;;;;14.70;4.20;;;13.10;99.90;;;;;;5034926;28;20037;-61
2024/04/02 09:55:52;;;;;;;13.50;4.40;;;13.00;99.90;;;;;;5041185;28;20404;-62
2024/04/02 09:58:19;;;;;;;10.38;3.30;;;12.90;99.90;;;;;;5039864;28;20519;-61
2024/04/02 10:00:51;;;;;;;12.07;4.25;;;12.80;99.90;;;;;;5040459;28;20045;-61
2024/04/02 10:03:18;;;;;;;15.93;4.03;;;12.80;99.90;;;;;;5038008;28;20047;-62
2024/04/02 10:05:44;;;;;;;9.55;4.03;;;12.90;99.90;;;;;;5035439;28;20041;-61
2024/04/02 10:08:11;;;;;;;11.50;3.63;;;12.90;99.90;;;;;;5022420;28;20114;-62
2024/04/02 10:10:40;;;;;;;11.80;3.85;;;13.00;99.90;;;;;;5035300;28;20053;-61
2024/04/02 10:13:07;;;;;;;8.95;3.50;;;12.90;99.90;;;;;;5036541;28;20127;-62
2024/04/02 10:15:33;;;;;;;8.55;3.10;;;12.90;99.90;;;;;;5038451;28;20048;-61
2024/04/02 10:18:00;;;;;;;9.90;3.65;;;13.00;99.90;;;;;;5040380;28;20526;-60
2024/04/02 10:20:33;;;;;;;13.38;3.88;;;13.10;99.90;;;;;;5040513;28;20077;-60
2024/04/02 10:23:00;;;;;;;10.35;4.32;;;13.20;99.90;;;;;;5039701;28;20045;-60
2024/04/02 10:25:30;;;;;;;14.02;5.07;;;13.10;99.90;;;;;;5039902;28;20032;-60
2024/04/02 10:28:01;;;;;;;12.48;4.22;;;13.30;99.90;;;;;;5040586;28;20044;-60
2024/04/02 10:30:28;;;;;;;9.73;3.83;;;13.20;99.90;;;;;;5038066;28;20677;-61
2024/04/02 10:32:54;;;;;;;9.73;3.60;;;13.10;99.90;;;;;;5039117;28;20673;-61
2024/04/02 10:35:29;;;;;;;12.40;4.35;;;13.20;99.90;;;;;;5039535;28;20135;-61
2024/04/02 10:37:57;;;;;;;11.98;3.90;;;13.60;99.90;;;;;;5039612;28;20029;-61
2024/04/02 10:40:27;;;;;;;11.23;4.27;;;13.60;99.90;;;;;;5040243;28;20136;-62
2024/04/02 10:42:53;;;;;;;12.63;3.67;;;13.50;99.90;;;;;;5038900;28;20547;-61
2024/04/02 10:45:20;;;;;;;15.02;4.30;;;13.40;99.90;;;;;;5040597;28;20122;-61
2024/04/02 10:47:46;;;;;;;11.45;4.63;;;13.30;99.90;;;;;;5038458;28;20044;-61
2024/04/02 10:50:13;;;;;;;10.18;4.50;;;13.10;99.90;;;;;;5039519;28;20345;-61
2024/04/02 10:52:39;;;;;;;6.90;4.20;;;13.10;99.90;;;;;;5045795;28;20139;-61
2024/04/02 10:55:05;;;;;;;11.40;4.93;;;13.10;99.90;;;;;;5039362;28;20389;-61
2024/04/02 10:57:35;;;;;;;10.48;5.18;;;13.00;99.90;;;;;;5037202;28;20404;-61
2024/04/02 11:00:04;;;;;;;12.07;4.82;;;13.00;99.90;;;;;;5040322;28;20116;-61
2024/04/02 11:02:31;;;;;;;10.10;4.72;;;12.90;99.90;;;;;;5038363;28;20044;-61
2024/04/02 11:04:58;;;;;;;9.95;4.95;;;12.90;99.90;;;;;;5040660;28;20069;-60
2024/04/02 11:07:30;;;;;;;12.93;5.60;;;13.10;99.90;;;;;;5038403;28;20067;-61
2024/04/02 11:09:57;;;;;;;16.55;5.47;;;13.00;99.90;;;;;;5040018;28;20447;-61
2024/04/02 11:12:24;;;;;;;12.35;5.43;;;13.10;99.90;;;;;;5038670;28;20147;-61
2024/04/02 11:14:54;;;;;;;11.25;5.45;;;13.00;99.90;;;;;;5038783;28;20605;-61
2024/04/02 11:17:20;;;;;;;11.48;5.40;;;12.90;99.90;;;;;;5038449;28;20419;-61
2024/04/02 11:19:46;;;;;;;10.57;5.85;;;12.90;99.90;;;;;;5037780;28;20523;-61
2024/04/02 11:25:13;;;;;;;13.07;5.32;;;13.00;99.90;;;;;;5038331;28;20053;-61
2024/04/02 11:27:42;;;;;;;15.45;4.90;;;13.00;99.90;;;;;;5033621;28;20060;-63
2024/04/02 11:30:09;;;;;;;8.90;4.75;;;13.00;99.90;;;;;;5031784;28;20037;-60
2024/04/02 11:32:36;;;;;;;13.52;5.70;;;12.90;99.90;;;;;;5038611;28;20044;-61
2024/04/02 11:35:13;;;;;;;18.38;5.07;;;13.00;99.90;;;;;;5035156;28;20076;-61
2024/04/02 11:37:40;;;;;;;9.07;4.63;;;13.00;99.90;;;;;;5038530;28;20116;-61
2024/04/02 11:40:07;;;;;;;9.77;5.05;;;13.00;99.90;;;;;;5037826;28;20063;-61
2024/04/02 11:42:33;;;;;;;6.93;3.80;;;13.00;99.90;;;;;;5038853;28;20090;-62
2024/04/02 11:45:03;;;;;;;13.10;5.38;;;13.00;99.90;;;;;;5038953;28;20463;-61
2024/04/02 11:47:30;;;;;;;11.88;5.28;;;13.00;99.90;;;;;;5038621;28;20080;-61
2024/04/02 11:49:56;;;;;;;12.55;4.90;;;12.90;99.90;;;;;;5037417;28;20044;-61
2024/04/02 11:52:21;;;;;;;7.88;3.80;;;12.80;99.90;;;;;;5038510;28;20040;-61
2024/04/02 11:54:47;;;;;;;9.35;4.10;;;12.90;99.90;;;;;;5039133;28;20045;-61
2024/04/02 12:00:02;;;;;;;10.65;4.40;;;13.00;99.90;;;;;;5038905;28;20106;-61
2024/04/02 12:02:27;;;;;;;20.75;4.60;;;13.10;99.90;;;;;;5037435;28;20041;-61
2024/04/02 12:04:54;;;;;;;9.43;3.20;;;13.30;99.90;;;;;;5038193;28;20037;-61
2024/04/02 12:07:21;;;;;;;11.80;3.25;;;13.40;99.90;;;;;;5040429;28;20102;-62
2024/04/02 12:09:55;;;;;;;7.82;2.88;;;13.40;99.90;;;;;;5038165;28;20546;-61
2024/04/02 12:12:21;;;;;;;11.77;2.65;;;13.50;99.90;;;;;;5038204;28;20467;-62
2024/04/02 12:14:47;;;;;;;8.70;2.65;;;13.60;99.90;;;;;;5036955;28;20036;-61
2024/04/02 12:17:13;;;;;;;6.40;2.28;;;13.50;99.90;;;;;;5035978;28;20433;-62
2024/04/02 12:19:38;;;;;;;9.75;2.47;;;13.60;99.90;;;;;;5037925;28;20048;-62
2024/04/02 12:22:04;;;;;;;7.85;3.38;;;13.50;99.90;;;;;;5037362;28;20041;-62
2024/04/02 12:24:30;;;;;;;6.70;2.63;;;13.60;99.90;;;;;;5037450;28;20040;-61
2024/04/02 12:26:56;;;;;;;6.97;2.15;;;13.50;99.90;;;;;;5037052;28;20071;-62
2024/04/02 12:29:22;;;;;;;10.07;3.00;;;13.50;99.90;;;;;;5036780;28;20288;-62
2024/04/02 12:31:47;;;;;;;19.17;3.60;;;13.60;99.90;;;;;;5038747;28;20367;-62
2024/04/02 12:34:18;;;;;;;11.32;3.08;;;13.60;99.90;;;;;;5036741;28;20036;-62
2024/04/02 12:36:44;;;;;;;7.47;2.70;;;13.70;99.90;;;;;;5037318;28;20582;-62
2024/04/02 12:39:11;;;;;;;11.50;3.15;;;13.70;99.90;;;;;;5038719;28;20029;-62
2024/04/02 12:41:40;;;;;;;13.60;3.17;;;13.70;99.90;;;;;;5037840;28;20036;-62
2024/04/02 12:44:07;;;;;;;10.40;2.58;;;13.80;99.90;;;;;;5032657;28;20069;-62
2024/04/02 12:46:33;;;;;;;8.10;3.13;;;13.90;99.90;;;;;;5045434;28;20044;-62